Centerlisle, New York
Current Conditions -  °F | °C
As of 7:53 AM on Saturday 20 Dec 2014 (Local Time) from KBGM Reporting Station
Broken Clouds Broken Clouds  
Wind Chill: 18°   Ceiling: 2000
Heat Index: 24°   Visibility: 10mi
Dew Point: 20°   Wind: 5mph
Humidity: 84%   Direction: 330°NNW
Pressure: 30.19"   Gusts: NA
Location:  42.3343°N, 76.0474°W
Report Text: KBGM 201253Z 33004KT 10SM BKN020 M04/M07 A3019 RMK AO2 SLP249 T10441067
Loading
Personal Weather Stations






























Interactive Weather Map New forecast layout! Learn more

10-Day Weather Forecast

Advertisements
Track Severe Weather on mobile